Time;durP1;ratioP1;P1;durP2;ratioP2;P2;SDS_P1;SDS_P2;PMS_P1;PMS_P2;Temp;Humidity;BMP_temperature;BMP_pressure;BME280_temperature;BME280_humidity;BME280_pressure;Samples;Min_cycle;Max_cycle;Signal;HPM_P1;HPM_P2
2022/09/17 00:00:40;;;;;;;12.88;2.42;;;;;;;10.22;100.00;101270.84;5028650;28;20476;-64
2022/09/17 00:03:06;;;;;;;12.57;2.60;;;;;;;10.20;100.00;101272.97;5031676;28;20356;-65
2022/09/17 00:05:31;;;;;;;11.68;2.60;;;;;;;10.22;100.00;101276.31;5031614;28;20021;-65
2022/09/17 00:07:57;;;;;;;10.68;2.05;;;;;;;10.20;100.00;101277.63;5012323;28;20029;-65
2022/09/17 00:10:23;;;;;;;15.38;2.88;;;;;;;10.23;100.00;101279.91;5012071;28;20046;-64
2022/09/17 00:12:48;;;;;;;14.95;2.95;;;;;;;10.26;100.00;101279.53;5011612;28;20040;-67
2022/09/17 00:15:14;;;;;;;9.90;2.05;;;;;;;10.27;100.00;101281.19;5028193;28;20025;-65
2022/09/17 00:17:40;;;;;;;10.63;2.28;;;;;;;10.29;100.00;101277.19;5027141;28;20099;-64
2022/09/17 00:20:09;;;;;;;11.82;2.40;;;;;;;10.30;100.00;101281.63;5031334;28;20419;-64
2022/09/17 00:22:36;;;;;;;12.80;2.50;;;;;;;10.33;100.00;101283.91;5031623;28;20030;-64
2022/09/17 00:25:02;;;;;;;10.50;1.90;;;;;;;10.37;100.00;101278.81;5031447;28;20591;-64
2022/09/17 00:27:27;;;;;;;13.45;2.35;;;;;;;10.38;100.00;101275.00;5031064;28;20067;-65
2022/09/17 00:29:53;;;;;;;10.63;1.95;;;;;;;10.38;100.00;101283.25;5028298;28;20369;-64
2022/09/17 00:32:18;;;;;;;12.93;2.03;;;;;;;10.37;100.00;101290.66;5031013;28;20037;-67
2022/09/17 00:34:45;;;;;;;9.27;2.20;;;;;;;10.38;100.00;101289.59;5031385;28;20087;-65
2022/09/17 00:37:10;;;;;;;9.70;1.95;;;;;;;10.38;100.00;101295.06;5018288;28;20025;-66
2022/09/17 00:39:36;;;;;;;8.45;1.95;;;;;;;10.39;100.00;101296.78;5011782;28;20454;-64
2022/09/17 00:42:04;;;;;;;10.00;1.60;;;;;;;10.38;100.00;101284.09;5010835;28;20109;-64
2022/09/17 00:44:35;;;;;;;;;;;;;;;10.48;100.00;101282.78;5026207;28;20472;-66
2022/09/17 00:47:01;;;;;;;11.18;1.70;;;;;;;10.44;100.00;101292.50;5029875;28;19921;-65
2022/09/17 00:49:29;;;;;;;8.93;1.90;;;;;;;10.43;100.00;101291.69;5030461;28;20025;-64
2022/09/17 00:52:03;;;;;;;8.05;1.70;;;;;;;10.44;100.00;101298.00;5029375;28;20476;-64
2022/09/17 00:54:28;;;;;;;10.30;1.77;;;;;;;10.43;100.00;101299.06;5031150;28;20025;-66
2022/09/17 00:56:55;;;;;;;7.32;1.73;;;;;;;10.43;99.39;101299.91;5030287;28;20042;-64
2022/09/17 00:59:21;;;;;;;8.02;1.45;;;;;;;10.43;99.41;101308.16;5027758;28;20091;-64
2022/09/17 01:01:47;;;;;;;9.48;1.88;;;;;;;10.44;99.46;101298.00;5029335;28;20036;-64
2022/09/17 01:04:21;;;;;;;8.55;1.60;;;;;;;10.43;98.96;101297.16;5030476;28;20523;-65
2022/09/17 01:06:55;;;;;;;10.25;2.00;;;;;;;10.42;98.81;101306.47;5025540;28;20037;-65
2022/09/17 01:09:52;;;;;;;11.48;1.90;;;;;;;10.43;99.21;101307.31;5030745;28;20025;-65
2022/09/17 01:12:17;;;;;;;12.13;2.05;;;;;;;10.41;98.86;101309.44;5029653;28;20037;-66
2022/09/17 01:15:27;;;;;;;9.88;1.75;;;;;;;10.45;98.31;101305.22;5073464;22;20045;-62
2022/09/17 01:18:35;;;;;;;9.40;1.67;;;;;;;10.46;98.99;101318.72;4966761;28;20576;-63
2022/09/17 01:21:28;;;;;;;10.55;2.45;;;;;;;10.43;99.12;101319.13;4949177;29;20039;-62
2022/09/17 01:24:24;;;;;;;11.20;2.78;;;;;;;10.44;98.62;101323.59;5009185;28;20046;-62
2022/09/17 01:27:19;;;;;;;10.00;1.73;;;;;;;10.44;99.03;101328.22;5013321;28;20128;-62
2022/09/17 01:30:05;;;;;;;11.35;2.22;;;;;;;10.47;99.86;101328.63;4998865;28;20033;-62
2022/09/17 01:32:38;;;;;;;11.85;1.90;;;;;;;10.42;98.99;101327.59;5029220;28;20420;-62
2022/09/17 01:35:13;;;;;;;8.82;2.55;;;;;;;10.38;99.38;101328.03;5029836;28;20766;-62
2022/09/17 01:38:00;;;;;;;9.93;2.13;;;;;;;10.38;99.21;101335.41;5027807;28;20119;-62
2022/09/17 01:40:37;;;;;;;9.68;1.95;;;;;;;10.37;99.87;101331.84;5029890;28;20049;-62
2022/09/17 01:43:18;;;;;;;8.75;2.00;;;;;;;10.36;99.58;101326.56;5028556;28;20113;-62
2022/09/17 01:45:50;;;;;;;10.95;2.38;;;;;;;10.34;99.57;101328.66;5027461;28;20029;-62
2022/09/17 01:48:18;;;;;;;9.32;1.80;;;;;;;10.32;99.51;101336.28;5029450;28;20026;-62
2022/09/17 01:50:52;;;;;;;12.27;2.38;;;;;;;10.35;99.36;101338.63;5029538;28;20388;-63
2022/09/17 01:53:21;;;;;;;7.93;1.95;;;;;;;10.27;98.90;101336.09;5027751;28;20037;-62
2022/09/17 01:55:49;;;;;;;10.27;2.67;;;;;;;10.20;99.21;101333.34;5029326;28;20033;-62
2022/09/17 01:58:20;;;;;;;9.82;1.90;;;;;;;10.18;99.75;101329.97;5029533;28;20033;-61
2022/09/17 02:00:50;;;;;;;10.15;1.90;;;;;;;10.13;99.67;101330.63;5027043;28;20038;-62
2022/09/17 02:03:18;;;;;;;9.90;1.90;;;;;;;10.10;100.00;101335.72;5009996;28;20109;-62
2022/09/17 02:05:58;;;;;;;11.15;1.88;;;;;;;10.10;100.00;101336.56;5009732;28;20096;-62
2022/09/17 02:08:30;;;;;;;9.27;1.40;;;;;;;10.08;100.00;101338.66;5024285;28;20479;-61
2022/09/17 02:11:02;;;;;;;12.88;1.90;;;;;;;10.07;100.00;101339.72;5028012;28;20025;-61
2022/09/17 02:13:31;;;;;;;10.45;1.90;;;;;;;10.09;100.00;101336.78;5029086;28;20117;-62
2022/09/17 02:16:03;;;;;;;10.55;1.90;;;;;;;10.13;100.00;101338.84;5009400;28;20041;-61
2022/09/17 02:18:36;;;;;;;11.70;2.05;;;;;;;10.17;100.00;101338.44;5028909;28;20052;-61
2022/09/17 02:21:10;;;;;;;13.57;1.80;;;;;;;10.19;100.00;101334.44;5028292;28;20017;-62
2022/09/17 02:23:46;;;;;;;12.30;2.10;;;;;;;10.21;100.00;101335.03;5025921;28;20032;-64
2022/09/17 02:26:16;;;;;;;8.45;1.98;;;;;;;10.23;100.00;101330.16;5028127;28;20084;-64
2022/09/17 02:28:50;;;;;;;9.27;1.98;;;;;;;10.21;100.00;101335.03;5028776;28;20031;-65
2022/09/17 02:31:15;;;;;;;8.20;2.20;;;;;;;10.20;100.00;101338.84;5026644;28;20396;-64
2022/09/17 02:33:43;;;;;;;10.63;1.73;;;;;;;10.18;100.00;101337.38;5028556;28;20025;-64
2022/09/17 02:36:09;;;;;;;9.23;1.92;;;;;;;10.19;100.00;101333.56;5028259;28;20084;-65
2022/09/17 02:38:35;;;;;;;8.88;1.90;;;;;;;10.16;100.00;101337.59;5028475;28;20513;-64
2022/09/17 02:41:20;;;;;;;7.95;1.73;;;;;;;10.18;100.00;101345.59;5027418;28;20067;-66
2022/09/17 02:44:01;;;;;;;10.25;1.70;;;;;;;10.15;100.00;101344.16;5027064;28;20025;-66
2022/09/17 02:46:54;;;;;;;10.00;1.77;;;;;;;10.14;100.00;101350.69;5027664;28;20037;-64
2022/09/17 02:49:50;;;;;;;10.38;1.92;;;;;;;10.12;100.00;101350.91;5028683;28;20083;-64
2022/09/17 02:52:21;;;;;;;11.52;2.38;;;;;;;10.09;100.00;101339.53;5025414;28;20060;-64
2022/09/17 02:54:59;;;;;;;9.65;1.80;;;;;;;10.09;100.00;101350.50;5028878;28;20570;-64
2022/09/17 02:57:40;;;;;;;10.85;1.92;;;;;;;10.10;100.00;101347.53;5027592;28;20473;-64
2022/09/17 03:00:13;;;;;;;9.98;1.98;;;;;;;10.14;100.00;101337.81;5026392;28;20649;-64
2022/09/17 03:02:46;;;;;;;11.60;1.90;;;;;;;10.19;100.00;101347.28;5025375;28;20029;-64
2022/09/17 03:05:13;;;;;;;11.40;2.00;;;;;;;10.21;100.00;101347.94;5027265;28;20435;-64
2022/09/17 03:07:39;;;;;;;9.57;1.65;;;;;;;10.22;100.00;101342.22;5026806;28;20945;-64
2022/09/17 03:10:05;;;;;;;11.13;2.08;;;;;;;10.22;100.00;101344.94;5027867;28;20108;-63
2022/09/17 03:12:30;;;;;;;12.68;2.50;;;;;;;10.20;100.00;101338.84;5027354;28;20029;-64
2022/09/17 03:14:56;;;;;;;11.77;1.70;;;;;;;10.14;100.00;101342.47;5026882;28;20510;-64
2022/09/17 03:17:21;;;;;;;7.65;1.85;;;;;;;10.12;100.00;101347.31;5026664;28;20099;-65
2022/09/17 03:19:47;;;;;;;12.43;1.95;;;;;;;10.08;100.00;101352.38;5027658;28;20029;-64
2022/09/17 03:22:12;;;;;;;10.55;2.35;;;;;;;10.03;100.00;101352.19;5026042;28;20038;-64
2022/09/17 03:24:37;;;;;;;11.65;1.88;;;;;;;9.99;100.00;101350.09;5027657;28;20033;-65
2022/09/17 03:27:03;;;;;;;8.75;1.83;;;;;;;9.96;100.00;101354.09;5027237;28;20476;-64
2022/09/17 03:29:28;;;;;;;12.38;2.85;;;;;;;9.96;100.00;101367.81;5026500;28;20447;-65
2022/09/17 03:31:53;;;;;;;10.67;1.70;;;;;;;10.00;100.00;101362.75;5027044;28;20345;-65
2022/09/17 03:34:19;;;;;;;10.98;1.67;;;;;;;10.01;100.00;101348.81;5027104;28;20284;-67
2022/09/17 03:36:45;;;;;;;10.25;2.20;;;;;;;9.98;100.00;101349.22;5026764;28;20029;-64
2022/09/17 03:39:10;;;;;;;9.88;1.70;;;;;;;9.97;100.00;101339.31;5026967;28;20033;-64
2022/09/17 03:41:35;;;;;;;9.63;1.75;;;;;;;9.95;100.00;101335.13;5026678;28;20038;-64
2022/09/17 03:44:01;;;;;;;9.77;1.77;;;;;;;9.93;100.00;101334.47;5026797;28;20037;-64
2022/09/17 03:46:26;;;;;;;14.20;2.35;;;;;;;9.91;100.00;101334.69;5027592;28;20098;-65
2022/09/17 03:48:51;;;;;;;12.23;1.90;;;;;;;9.90;100.00;101338.50;5026979;28;20038;-64
2022/09/17 03:51:17;;;;;;;10.82;2.08;;;;;;;9.90;100.00;101341.25;5026514;28;20021;-64
2022/09/17 03:53:42;;;;;;;7.15;1.58;;;;;;;9.90;100.00;101335.75;5027473;28;20026;-65
2022/09/17 03:56:08;;;;;;;8.95;2.05;;;;;;;9.89;100.00;101347.81;5027021;28;20053;-64
2022/09/17 03:58:33;;;;;;;9.05;2.10;;;;;;;9.88;100.00;101354.31;5025083;28;20045;-65
2022/09/17 04:00:58;;;;;;;11.05;1.98;;;;;;;9.84;100.00;101353.94;5027290;28;20104;-64
2022/09/17 04:03:26;;;;;;;13.40;2.10;;;;;;;9.82;100.00;101361.50;5027440;28;20036;-64
2022/09/17 04:05:51;;;;;;;10.80;1.93;;;;;;;9.79;100.00;101361.13;5026796;28;20041;-64
2022/09/17 04:08:17;;;;;;;10.63;1.90;;;;;;;9.76;100.00;101364.28;5026627;28;20029;-64
2022/09/17 04:10:43;;;;;;;10.30;1.92;;;;;;;9.73;100.00;101361.94;5027389;28;20052;-64
2022/09/17 04:13:09;;;;;;;12.55;2.10;;;;;;;9.70;100.00;101359.63;5027105;28;20116;-64
2022/09/17 04:15:35;;;;;;;8.75;1.83;;;;;;;9.68;100.00;101359.00;5026525;28;20037;-65
2022/09/17 04:18:00;;;;;;;12.65;1.77;;;;;;;9.66;100.00;101366.59;5026426;28;20403;-64
2022/09/17 04:20:25;;;;;;;12.52;2.65;;;;;;;9.65;100.00;101370.41;5006463;28;20048;-65
2022/09/17 04:22:51;;;;;;;8.85;1.55;;;;;;;9.64;100.00;101365.97;5026997;28;20048;-65
2022/09/17 04:25:17;;;;;;;10.27;1.67;;;;;;;9.64;100.00;101374.22;5025812;28;20034;-64
2022/09/17 04:27:43;;;;;;;12.50;1.95;;;;;;;9.65;100.00;101371.25;5025965;28;20037;-64
2022/09/17 04:30:09;;;;;;;10.23;2.20;;;;;;;9.67;100.00;101366.38;5026462;28;20029;-64
2022/09/17 04:32:34;;;;;;;10.50;2.13;;;;;;;9.71;100.00;101369.53;5027176;28;20060;-65
2022/09/17 04:35:00;;;;;;;8.65;1.73;;;;;;;9.72;100.00;101372.06;5024877;28;20041;-64
2022/09/17 04:37:25;;;;;;;10.32;2.45;;;;;;;9.73;100.00;101373.78;5026670;28;20033;-65
2022/09/17 04:39:51;;;;;;;9.48;1.88;;;;;;;9.77;100.00;101366.78;5009247;28;20365;-64
2022/09/17 04:42:16;;;;;;;11.05;2.28;;;;;;;9.76;100.00;101361.53;5027678;28;20045;-64
2022/09/17 04:44:42;;;;;;;13.80;2.00;;;;;;;9.76;100.00;101367.00;5029379;28;20038;-65
2022/09/17 04:47:07;;;;;;;9.88;1.83;;;;;;;9.76;100.00;101372.50;5029426;28;20041;-64
2022/09/17 04:49:33;;;;;;;12.43;1.88;;;;;;;9.73;100.00;101368.28;5028727;28;20029;-66
2022/09/17 04:51:58;;;;;;;9.55;1.77;;;;;;;9.69;100.00;101367.03;5030225;28;20380;-64
2022/09/17 04:54:23;;;;;;;9.00;1.90;;;;;;;9.65;100.00;101367.66;5012044;28;20033;-65
2022/09/17 04:56:49;;;;;;;11.98;2.50;;;;;;;9.60;100.00;101376.53;5029737;28;20036;-65
2022/09/17 04:59:14;;;;;;;9.95;2.45;;;;;;;9.56;100.00;101369.75;5030200;28;20033;-65
2022/09/17 05:01:40;;;;;;;7.90;1.52;;;;;;;9.47;100.00;101373.75;5029521;28;20032;-65
2022/09/17 05:04:05;;;;;;;8.10;1.73;;;;;;;9.44;100.00;101371.47;5026962;28;20029;-66
2022/09/17 05:06:30;;;;;;;10.65;1.85;;;;;;;9.42;100.00;101379.88;5030190;28;20044;-64
2022/09/17 05:08:56;;;;;;;9.55;1.65;;;;;;;9.42;100.00;101384.53;5030002;28;20049;-64
2022/09/17 05:11:21;;;;;;;11.63;1.95;;;;;;;9.38;100.00;101381.38;5029703;28;20092;-65
2022/09/17 05:13:47;;;;;;;10.63;2.10;;;;;;;9.38;100.00;101377.75;5029588;28;20094;-64
2022/09/17 05:16:12;;;;;;;8.90;1.73;;;;;;;9.35;100.00;101381.78;5027092;28;20398;-65
2022/09/17 05:18:37;;;;;;;11.48;1.77;;;;;;;9.32;100.00;101383.03;5027772;28;20072;-64
2022/09/17 05:21:02;;;;;;;9.68;1.95;;;;;;;9.31;100.00;101383.25;5028956;28;20053;-64
2022/09/17 05:23:28;;;;;;;11.65;2.13;;;;;;;9.30;100.00;101389.78;5030315;28;20029;-65
2022/09/17 05:25:58;;;;;;;10.45;2.28;;;;;;;9.27;100.00;101391.03;5027484;28;20038;-66
2022/09/17 05:28:24;;;;;;;9.82;2.03;;;;;;;9.28;100.00;101394.66;5029078;28;20175;-64
2022/09/17 05:30:49;;;;;;;11.55;2.08;;;;;;;9.29;100.00;101390.84;5028158;28;20564;-65
2022/09/17 05:33:14;;;;;;;9.13;1.90;;;;;;;9.29;100.00;101399.91;5030157;28;20025;-64
2022/09/17 05:35:40;;;;;;;7.30;1.42;;;;;;;9.27;100.00;101398.41;5037978;28;20029;-64
2022/09/17 05:38:06;;;;;;;8.55;1.73;;;;;;;9.26;100.00;101402.22;5049507;28;20041;-64
2022/09/17 05:40:32;;;;;;;13.48;2.33;;;;;;;9.25;100.00;101404.13;5049701;28;20033;-64
2022/09/17 05:42:58;;;;;;;11.02;1.88;;;;;;;9.23;100.00;101406.25;5048699;28;20127;-65
2022/09/17 05:45:24;;;;;;;11.60;2.00;;;;;;;9.24;100.00;101410.66;5038659;28;20105;-65
2022/09/17 05:47:54;;;;;;;10.50;1.80;;;;;;;9.25;100.00;101406.03;5028432;28;20079;-64
2022/09/17 05:50:19;;;;;;;13.48;1.90;;;;;;;9.26;100.00;101405.81;5029673;28;20380;-64
2022/09/17 05:52:44;;;;;;;10.50;1.88;;;;;;;9.28;100.00;101400.97;5028934;28;20032;-64
2022/09/17 05:55:10;;;;;;;11.45;1.92;;;;;;;9.31;100.00;101410.66;5027995;28;20034;-64
2022/09/17 05:57:35;;;;;;;10.25;2.20;;;;;;;9.37;100.00;101418.03;5027955;28;20040;-66
2022/09/17 06:00:00;;;;;;;10.43;2.10;;;;;;;9.45;100.00;101417.00;5027221;28;20115;-64
2022/09/17 06:02:26;;;;;;;13.52;2.40;;;;;;;9.50;100.00;101423.56;5029265;28;20353;-64
2022/09/17 06:04:51;;;;;;;13.23;2.08;;;;;;;9.56;100.00;101435.56;5027170;28;20061;-66
2022/09/17 06:07:16;;;;;;;10.23;2.30;;;;;;;9.62;100.00;101434.72;5029480;28;20026;-64
2022/09/17 06:09:41;;;;;;;10.57;1.75;;;;;;;9.69;100.00;101432.84;5026859;28;20643;-63
2022/09/17 06:12:07;;;;;;;8.68;1.60;;;;;;;9.73;100.00;101430.50;5010615;28;20030;-64
2022/09/17 06:14:32;;;;;;;10.20;2.10;;;;;;;9.79;100.00;101425.03;5028278;28;20046;-64
2022/09/17 06:16:58;;;;;;;11.02;1.83;;;;;;;9.83;99.96;101429.06;5028617;28;20415;-64
2022/09/17 06:19:24;;;;;;;10.25;2.10;;;;;;;9.87;100.00;101421.22;5027663;28;20435;-64
2022/09/17 06:21:49;;;;;;;11.50;2.15;;;;;;;9.92;100.00;101423.34;5025276;28;20030;-66
2022/09/17 06:24:15;;;;;;;10.80;2.17;;;;;;;9.96;100.00;101432.84;5029126;28;20357;-64
2022/09/17 06:26:40;;;;;;;9.00;1.77;;;;;;;9.99;100.00;101437.91;5027429;28;20037;-65
2022/09/17 06:29:05;;;;;;;10.50;1.95;;;;;;;10.00;100.00;101432.22;5024359;28;20022;-64
2022/09/17 06:31:30;;;;;;;7.82;1.55;;;;;;;10.03;99.14;101433.66;5026174;28;20029;-64
2022/09/17 06:33:56;;;;;;;11.13;2.28;;;;;;;10.07;99.31;101423.97;5028432;28;20029;-64
2022/09/17 06:36:21;;;;;;;7.80;1.77;;;;;;;10.13;98.64;101423.94;5026206;28;20479;-64
2022/09/17 06:38:47;;;;;;;9.68;1.92;;;;;;;10.18;96.55;101426.03;5027977;28;20038;-64
2022/09/17 06:41:13;;;;;;;9.57;1.77;;;;;;;10.20;95.79;101432.19;5027799;28;20029;-65
2022/09/17 06:43:38;;;;;;;6.55;1.88;;;;;;;10.22;95.63;101426.47;5027806;28;20272;-64
2022/09/17 06:46:04;;;;;;;7.85;1.52;;;;;;;10.20;95.04;101429.44;5025509;28;20044;-65
2022/09/17 06:48:33;;;;;;;6.55;1.30;;;;;;;10.21;94.53;101428.38;5027930;28;20116;-65
2022/09/17 06:51:03;;;;;;;8.18;1.58;;;;;;;10.20;94.00;101425.84;5028243;28;20033;-64
2022/09/17 06:53:28;;;;;;;4.45;1.40;;;;;;;10.19;93.97;101436.00;5026842;28;20356;-64
2022/09/17 06:55:56;;;;;;;7.55;1.70;;;;;;;10.16;93.91;101438.31;5027570;28;20022;-63
2022/09/17 06:58:21;;;;;;;7.25;1.73;;;;;;;10.13;94.40;101434.06;5026649;28;20033;-65
2022/09/17 07:00:46;;;;;;;5.18;1.33;;;;;;;10.12;94.18;101427.75;5028419;28;20067;-63
2022/09/17 07:03:11;;;;;;;4.68;1.42;;;;;;;10.12;94.61;101435.97;5027257;28;20036;-63
2022/09/17 07:05:37;;;;;;;5.75;1.58;;;;;;;10.13;94.45;101434.06;5027410;28;20103;-65
2022/09/17 07:08:02;;;;;;;6.25;1.40;;;;;;;10.17;94.79;101435.34;5025475;28;20041;-64
2022/09/17 07:10:28;;;;;;;6.30;1.30;;;;;;;10.19;95.49;101441.47;5027377;28;20044;-64
2022/09/17 07:12:53;;;;;;;6.65;1.50;;;;;;;10.24;94.91;101443.59;5027464;28;20075;-64
2022/09/17 07:15:19;;;;;;;4.77;1.30;;;;;;;10.27;95.19;101444.00;5026611;28;20203;-63
2022/09/17 07:17:45;;;;;;;6.20;1.63;;;;;;;10.32;94.72;101438.72;5027294;28;20770;-62
2022/09/17 07:20:11;;;;;;;6.72;1.17;;;;;;;10.37;94.00;101446.31;5026449;28;20033;-62
2022/09/17 07:22:36;;;;;;;7.22;1.60;;;;;;;10.42;92.86;101443.78;5026495;28;20426;-65
2022/09/17 07:25:02;;;;;;;5.68;1.40;;;;;;;10.47;93.10;101445.88;5027513;28;20164;-63
2022/09/17 07:27:29;;;;;;;7.28;1.15;;;;;;;10.52;92.83;101449.66;5026986;28;20132;-62
2022/09/17 07:29:54;;;;;;;6.40;1.20;;;;;;;10.60;93.30;101443.09;5024762;28;20423;-62
2022/09/17 07:32:20;;;;;;;5.60;1.10;;;;;;;10.68;92.59;101448.34;5027483;28;20029;-64
2022/09/17 07:34:46;;;;;;;8.93;1.25;;;;;;;10.75;92.29;101454.66;5025763;28;20059;-62
2022/09/17 07:37:11;;;;;;;6.07;1.20;;;;;;;10.86;92.41;101455.91;5025886;28;20042;-62
2022/09/17 07:39:36;;;;;;;7.32;1.23;;;;;;;10.97;91.67;101448.88;5028184;28;20030;-63
2022/09/17 07:42:03;;;;;;;5.40;1.00;;;;;;;11.07;91.68;101443.75;5027077;28;20463;-62
2022/09/17 07:44:29;;;;;;;3.85;1.00;;;;;;;11.13;90.38;101442.84;5027000;28;20044;-63
2022/09/17 07:46:54;;;;;;;6.05;1.05;;;;;;;11.18;90.27;101443.03;5027819;28;20034;-62
2022/09/17 07:49:19;;;;;;;5.35;1.10;;;;;;;11.22;90.13;101447.03;5027752;28;20031;-64
2022/09/17 07:51:45;;;;;;;5.82;1.30;;;;;;;11.25;89.87;101452.06;5026917;28;20078;-62
2022/09/17 07:54:10;;;;;;;5.93;1.13;;;;;;;11.32;90.62;101447.41;5026664;28;20021;-63
2022/09/17 07:56:36;;;;;;;4.25;1.20;;;;;;;11.42;89.03;101444.16;5027166;28;20116;-63
2022/09/17 07:59:02;;;;;;;6.18;0.98;;;;;;;11.46;88.85;101439.91;5025339;28;20164;-62
2022/09/17 08:01:30;;;;;;;5.35;1.25;;;;;;;11.51;87.47;101440.09;5027811;28;20044;-64
2022/09/17 08:03:55;;;;;;;5.72;1.30;;;;;;;11.58;88.18;101437.28;5027574;28;20036;-62
2022/09/17 08:06:24;;;;;;;4.78;0.95;;;;;;;11.73;89.47;101446.06;5028016;28;20025;-63
2022/09/17 08:08:50;;;;;;;6.32;1.23;;;;;;;11.82;88.57;101450.25;5026653;28;20040;-64
2022/09/17 08:11:18;;;;;;;5.93;1.40;;;;;;;11.83;86.93;101445.59;5021602;28;20037;-63
2022/09/17 08:13:47;;;;;;;3.17;0.88;;;;;;;11.84;87.21;101448.09;5025047;28;20064;-63
2022/09/17 08:16:12;;;;;;;4.10;1.02;;;;;;;11.94;85.65;101447.59;5025823;28;20049;-63
2022/09/17 08:18:38;;;;;;;6.38;1.08;;;;;;;12.07;86.10;101449.41;5031668;28;20040;-62
2022/09/17 08:21:05;;;;;;;6.47;1.20;;;;;;;12.15;85.77;101458.19;5031431;28;20030;-62
2022/09/17 08:23:34;;;;;;;7.70;1.70;;;;;;;12.19;84.31;101448.44;5031372;28;20057;-63
2022/09/17 08:26:00;;;;;;;7.20;1.38;;;;;;;12.20;83.38;101441.00;5027376;28;20040;-62
2022/09/17 08:28:27;;;;;;;4.88;1.20;;;;;;;12.20;85.35;101444.59;5027588;28;20124;-63
2022/09/17 08:30:53;;;;;;;6.28;1.45;;;;;;;12.25;84.00;101427.41;5030637;28;20053;-62
2022/09/17 08:33:19;;;;;;;6.80;1.00;;;;;;;12.28;82.36;101440.72;5029149;28;20117;-66
2022/09/17 08:35:58;;;;;;;6.78;1.40;;;;;;;12.39;82.62;101439.97;5027816;28;20381;-64
2022/09/17 08:38:23;;;;;;;5.35;1.23;;;;;;;12.62;82.20;101446.69;5026904;28;20089;-63
2022/09/17 08:41:02;;;;;;;9.05;1.73;;;;;;;12.76;82.74;101445.47;5030111;28;21035;-65
2022/09/17 08:43:30;;;;;;;7.28;1.33;;;;;;;12.83;81.48;101454.53;5030546;28;20036;-63
2022/09/17 08:45:57;;;;;;;7.45;1.67;;;;;;;12.95;81.02;101447.13;5030057;28;20034;-63
2022/09/17 08:48:27;;;;;;;6.90;1.30;;;;;;;13.07;82.30;101446.34;5030600;28;20045;-63
2022/09/17 08:50:52;;;;;;;8.52;1.33;;;;;;;13.22;79.55;101444.88;5030774;28;20029;-63
2022/09/17 08:53:29;;;;;;;8.60;1.73;;;;;;;13.74;81.01;101444.34;5031082;28;20030;-63
2022/09/17 08:56:05;;;;;;;9.73;1.65;;;;;;;14.46;75.53;101433.06;5030006;28;20037;-64
2022/09/17 08:58:40;;;;;;;6.78;1.30;;;;;;;14.66;75.79;101444.63;5029541;28;20040;-63
2022/09/17 09:01:22;;;;;;;6.32;1.23;;;;;;;14.31;75.42;101449.31;5030528;28;20042;-63
2022/09/17 09:04:09;;;;;;;7.50;1.42;;;;;;;14.11;75.07;101458.78;5030206;28;20376;-63
2022/09/17 09:06:40;;;;;;;5.22;1.17;;;;;;;14.12;72.45;101446.66;5029997;28;20033;-63
2022/09/17 09:09:14;;;;;;;3.58;0.95;;;;;;;14.11;73.59;101455.19;5030393;28;20105;-64
2022/09/17 09:11:42;;;;;;;6.22;1.05;;;;;;;13.75;73.23;101451.53;5030111;28;20024;-64
2022/09/17 09:14:28;;;;;;;4.80;1.08;;;;;;;13.87;74.80;101457.91;5029392;28;20094;-64
2022/09/17 09:16:55;;;;;;;5.20;1.00;;;;;;;14.47;70.65;101456.88;5029887;28;20040;-64
2022/09/17 09:19:22;;;;;;;4.60;0.82;;;;;;;16.61;65.70;101450.59;5029898;28;20033;-65
2022/09/17 09:22:25;;;;;;;3.20;0.90;;;;;;;18.73;59.32;101454.06;5027866;28;20083;-65
2022/09/17 09:25:10;;;;;;;2.75;0.63;;;;;;;20.01;53.59;101460.00;5026848;28;20033;-65
2022/09/17 09:27:45;;;;;;;1.55;0.70;;;;;;;19.18;53.07;101472.09;5027053;28;20040;-66
2022/09/17 09:30:13;;;;;;;4.32;1.02;;;;;;;18.15;56.96;101476.22;5030255;28;20034;-65
2022/09/17 09:33:02;;;;;;;3.40;0.70;;;;;;;17.34;58.66;101476.25;5029129;28;20042;-65
2022/09/17 09:35:35;;;;;;;5.43;1.13;;;;;;;16.46;61.52;101475.31;5030098;28;20172;-65
2022/09/17 09:38:17;;;;;;;4.47;0.95;;;;;;;16.15;64.02;101462.94;5029009;28;20033;-65
2022/09/17 09:40:47;;;;;;;3.17;0.80;;;;;;;17.21;59.22;101470.25;4992595;28;20038;-65
2022/09/17 09:43:46;;;;;;;6.53;0.90;;;;;;;17.56;60.11;101478.97;5009608;28;20026;-65
2022/09/17 09:46:48;;;;;;;3.60;0.90;;;;;;;19.88;56.13;101470.59;5009344;28;20042;-65
2022/09/17 09:49:16;;;;;;;3.97;0.80;;;;;;;21.93;48.81;101471.56;5017404;28;20129;-65
2022/09/17 09:52:02;;;;;;;;;;;;;;;22.59;50.52;101467.34;5030235;28;20105;-65
2022/09/17 09:54:55;;;;;;;3.08;0.93;;;;;;;20.87;50.30;101459.84;5029094;28;19917;-65
2022/09/17 09:57:53;;;;;;;4.05;0.90;;;;;;;21.09;51.43;101461.47;5027882;28;20372;-65
2022/09/17 10:00:31;;;;;;;4.00;0.90;;;;;;;21.06;48.34;101462.03;5014706;28;20130;-66
2022/09/17 10:03:17;;;;;;;3.80;0.95;;;;;;;21.58;49.07;101461.47;5029090;28;20072;-65
2022/09/17 10:06:03;;;;;;;4.15;0.80;;;;;;;22.99;48.91;101465.25;5029716;28;20026;-65
2022/09/17 10:08:31;;;;;;;4.05;0.82;;;;;;;22.54;44.42;101465.44;5029400;28;20030;-65
2022/09/17 10:11:19;;;;;;;3.70;0.70;;;;;;;22.96;44.28;101465.81;5028727;28;20025;-65
2022/09/17 10:13:44;;;;;;;5.90;1.00;;;;;;;22.70;42.95;101463.28;5028263;28;20053;-65
2022/09/17 10:16:24;;;;;;;5.82;1.25;;;;;;;21.06;46.78;101470.41;5028476;28;20443;-65
2022/09/17 10:19:04;;;;;;;2.42;0.77;;;;;;;19.60;50.68;101465.53;5028412;28;20029;-66
2022/09/17 10:21:41;;;;;;;4.45;0.88;;;;;;;19.00;52.17;101481.75;5028849;28;20465;-65
2022/09/17 10:24:28;;;;;;;6.05;1.02;;;;;;;17.85;55.57;101465.69;5028196;28;20104;-65
2022/09/17 10:27:01;;;;;;;;;;;;;;;17.34;60.26;101467.09;5027239;28;20036;-65
2022/09/17 10:29:26;;;;;;;3.50;0.73;;;;;;;16.34;62.64;101461.56;5027567;28;19923;-64
2022/09/17 10:31:54;;;;;;;5.38;1.25;;;;;;;16.88;63.33;101460.13;5026894;28;20029;-65
2022/09/17 10:34:21;;;;;;;6.68;1.00;;;;;;;18.53;60.66;101459.50;5028110;28;20116;-65
2022/09/17 10:36:47;;;;;;;4.63;0.82;;;;;;;19.73;53.68;101450.25;5026951;28;20029;-64
2022/09/17 10:39:30;;;;;;;4.93;1.30;;;;;;;21.65;51.96;101456.41;5026264;28;20033;-64
2022/09/17 10:41:57;;;;;;;4.30;0.75;;;;;;;22.95;45.39;101448.19;5036367;28;20113;-64
2022/09/17 10:44:28;;;;;;;4.82;0.93;;;;;;;24.23;41.51;101449.94;5026593;28;20083;-65
2022/09/17 10:47:00;;;;;;;4.95;0.93;;;;;;;24.71;40.58;101446.78;5026989;28;20036;-65
2022/09/17 10:49:47;;;;;;;3.65;0.70;;;;;;;25.41;41.24;101445.59;5028046;28;20055;-65
2022/09/17 10:52:20;;;;;;;3.60;0.70;;;;;;;25.67;40.37;101447.81;5027552;28;20089;-65
2022/09/17 10:55:04;;;;;;;5.13;0.93;;;;;;;25.67;40.63;101454.28;5018209;28;20107;-65
2022/09/17 10:57:41;;;;;;;3.63;0.82;;;;;;;25.66;38.83;101447.00;5025320;28;20042;-66
2022/09/17 11:00:19;;;;;;;3.65;1.02;;;;;;;25.59;40.71;101440.94;5027827;28;20113;-65
2022/09/17 11:03:04;;;;;;;5.30;1.20;;;;;;;26.15;39.85;101445.22;5027007;28;20108;-65
2022/09/17 11:06:06;;;;;;;3.38;0.75;;;;;;;24.89;39.85;101452.59;5022384;28;20025;-65
2022/09/17 11:08:51;;;;;;;5.50;1.27;;;;;;;22.06;44.63;101452.47;5027198;28;20037;-65
2022/09/17 11:12:07;;;;;;;3.83;0.70;;;;;;;20.16;50.09;101437.69;5027680;28;20120;-65
2022/09/17 11:14:36;;;;;;;6.30;0.85;;;;;;;20.08;48.65;101441.06;4992004;28;20376;-65
2022/09/17 11:17:27;;;;;;;5.63;1.20;;;;;;;20.98;47.63;101435.50;5026115;28;20454;-65
2022/09/17 11:20:17;;;;;;;5.35;1.17;;;;;;;22.79;44.08;101422.31;5026260;28;20057;-64
2022/09/17 11:22:53;;;;;;;4.00;1.00;;;;;;;23.62;40.41;101425.69;5026531;28;20037;-64
2022/09/17 11:25:31;;;;;;;5.78;1.10;;;;;;;23.70;38.68;101425.00;5025554;28;20033;-66
2022/09/17 11:28:06;;;;;;;7.88;1.17;;;;;;;23.97;39.67;101426.22;5024152;28;20492;-64
2022/09/17 11:30:44;;;;;;;5.32;1.02;;;;;;;24.07;40.28;101426.06;5024529;28;20065;-65
2022/09/17 11:33:48;;;;;;;4.88;0.93;;;;;;;23.90;41.30;101423.00;5027247;28;20431;-64
2022/09/17 11:36:21;;;;;;;3.97;0.80;;;;;;;22.47;42.67;101441.72;5027490;28;20025;-64
2022/09/17 11:38:49;;;;;;;4.63;1.20;;;;;;;20.56;45.59;101431.22;5026440;28;20041;-65